createdAt,value
2022-09-20T07:18:36.140Z,97152.91
2022-09-20T07:19:37.492Z,97151.47
2022-09-20T07:20:39.460Z,97154.91
2022-09-20T07:21:40.772Z,97155.44
2022-09-20T07:26:31.416Z,97165.22
2022-09-20T07:27:32.757Z,97151.03
2022-09-20T07:38:01.854Z,97173.25
2022-09-20T07:43:33.105Z,97148.34
2022-09-20T07:44:34.451Z,97169.31
2022-09-20T07:48:38.032Z,97179.06
2022-09-20T07:49:39.484Z,97173.16
2022-09-20T07:52:40.432Z,97157.22
2022-09-20T07:53:42.023Z,97182.34
2022-09-20T07:54:43.919Z,97169.00
2022-09-20T07:55:57.043Z,97163.44
2022-09-20T07:56:58.485Z,97176.00
2022-09-20T07:57:59.878Z,97183.91
2022-09-20T07:59:01.229Z,97180.19
2022-09-20T08:00:05.746Z,97186.06
2022-09-20T08:01:09.843Z,97189.34
2022-09-20T08:02:18.284Z,97181.84
2022-09-20T08:07:04.705Z,97194.28
2022-09-20T08:08:11.004Z,97181.72
2022-09-20T08:09:13.753Z,97187.91
2022-09-20T08:10:15.150Z,97185.91
2022-09-20T08:14:08.272Z,97196.16
2022-09-20T08:15:12.050Z,97196.84
2022-09-20T08:16:14.749Z,97202.63
2022-09-20T08:17:16.356Z,97200.38
2022-09-20T08:18:17.697Z,97197.69
2022-09-20T08:19:26.014Z,97194.53
2022-09-20T08:20:27.395Z,97201.06
2022-09-20T08:33:06.960Z,97195.81
2022-09-20T08:34:10.721Z,97201.09
2022-09-20T08:35:13.519Z,97191.28
2022-09-20T08:36:17.808Z,97187.59
2022-09-20T08:37:19.355Z,97192.91
2022-09-20T08:40:03.212Z,97198.41
2022-09-20T08:41:11.826Z,97200.94
2022-09-20T08:42:18.747Z,97195.19
2022-09-20T08:43:22.804Z,97204.34
2022-09-20T08:44:35.080Z,97200.94
2022-09-20T08:45:36.910Z,97200.00
2022-09-20T08:47:09.751Z,97208.44
2022-09-20T08:48:16.884Z,97203.34
2022-09-20T08:49:28.808Z,97190.78
2022-09-20T08:50:30.195Z,97186.31
2022-09-20T08:51:35.628Z,97177.72
2022-09-20T08:52:40.001Z,97182.03
2022-09-20T08:53:56.142Z,97194.00
2022-09-20T08:54:59.316Z,97184.13
2022-09-20T08:56:01.329Z,97196.09
2022-09-20T08:57:09.288Z,97198.22
2022-09-20T08:58:13.519Z,97195.22
2022-09-20T08:59:24.187Z,97199.56
2022-09-20T09:00:34.047Z,97192.75
2022-09-20T09:01:36.828Z,97192.59
2022-09-20T09:02:39.294Z,97192.19
2022-09-20T09:03:40.686Z,97184.81
2022-09-20T09:04:46.859Z,97192.56
2022-09-20T09:05:48.268Z,97199.69
2022-09-20T09:06:51.168Z,97182.53
2022-09-20T09:07:52.735Z,97187.31
2022-09-20T09:08:57.994Z,97198.50
2022-09-20T09:10:04.274Z,97198.31
2022-09-20T09:11:09.529Z,97192.38
2022-09-20T09:12:19.139Z,97189.53
2022-09-20T09:13:33.004Z,97191.31
2022-09-20T09:14:53.867Z,97182.09
2022-09-20T09:16:05.725Z,97187.13
2022-09-20T09:17:09.637Z,97191.84
2022-09-20T09:18:11.544Z,97198.63
2022-09-20T09:19:42.924Z,97196.63
2022-09-20T09:20:46.098Z,97194.34
2022-09-20T09:21:47.537Z,97192.22
2022-09-20T09:23:11.301Z,97202.16
2022-09-20T09:24:19.439Z,97194.97
2022-09-20T09:25:34.252Z,97190.91
2022-09-20T09:26:38.822Z,97171.38
2022-09-20T09:28:12.431Z,97199.50
2022-09-20T09:29:18.074Z,97197.34
2022-09-20T09:30:25.952Z,97192.31
2022-09-20T09:31:27.423Z,97197.78
2022-09-20T09:32:33.181Z,97185.25
2022-09-20T09:33:34.849Z,97187.72
2022-09-20T09:34:38.707Z,97190.66
2022-09-20T09:35:40.621Z,97192.81
2022-09-20T09:36:44.815Z,97180.84
2022-09-20T09:38:00.111Z,97190.03
2022-09-20T09:39:22.598Z,97188.19
2022-09-20T09:40:24.381Z,97164.53
2022-09-20T09:41:33.224Z,97196.22
2022-09-20T09:42:35.902Z,97183.00
2022-09-20T09:43:40.430Z,97185.13
2022-09-20T09:44:41.830Z,97191.63
2022-09-20T09:45:43.242Z,97184.09
2022-09-20T09:46:44.877Z,97187.09
2022-09-20T09:47:46.308Z,97185.59
2022-09-20T09:49:05.364Z,97192.94
2022-09-20T09:50:22.254Z,97183.94
2022-09-20T09:51:23.583Z,97181.63
2022-09-20T09:52:27.849Z,97180.66
2022-09-20T09:53:29.286Z,97191.34
2022-09-20T09:55:03.841Z,97181.44
2022-09-20T10:02:04.388Z,97187.38
2022-09-20T10:03:33.612Z,97170.69
2022-09-20T10:04:38.470Z,97190.44
2022-09-20T10:06:10.705Z,97189.47
2022-09-20T10:07:27.920Z,97190.38
2022-09-20T10:08:49.166Z,97186.72
2022-09-20T10:10:04.492Z,97192.00
2022-09-20T10:11:24.854Z,97196.38
2022-09-20T10:12:39.325Z,97190.34
2022-09-20T10:14:05.271Z,97180.34
2022-09-20T10:15:35.530Z,97184.66
2022-09-20T10:17:01.906Z,97180.78
2022-09-20T10:18:24.617Z,97192.59
2022-09-20T10:19:55.720Z,97186.19
2022-09-20T10:31:35.797Z,97190.56
2022-09-20T10:32:49.792Z,97193.66
2022-09-20T10:41:29.097Z,97187.66
2022-09-20T10:42:55.196Z,97180.88
2022-09-20T10:44:15.096Z,97176.19
2022-09-20T10:46:20.553Z,97176.72
2022-09-20T10:47:15.563Z,97187.97
2022-09-20T10:48:20.537Z,97182.91
2022-09-20T10:49:41.409Z,97177.59
2022-09-20T11:00:45.773Z,97188.63
2022-09-20T11:01:58.950Z,97192.88
2022-09-20T11:14:05.212Z,97202.63
2022-09-20T11:15:35.394Z,97199.75
2022-09-20T11:16:46.782Z,97198.75
2022-09-20T11:18:12.288Z,97189.03
2022-09-20T11:19:26.651Z,97199.53
2022-09-20T11:32:37.030Z,97201.28
2022-09-20T11:33:53.230Z,97199.13
2022-09-20T11:34:59.859Z,97196.81
2022-09-20T11:42:08.198Z,97198.97
2022-09-20T11:43:10.838Z,97205.88
2022-09-20T12:02:16.443Z,97189.22
2022-09-20T12:03:40.211Z,97186.44
2022-09-20T12:04:46.226Z,97170.19
2022-09-20T12:06:00.392Z,97169.75
2022-09-20T12:07:10.636Z,97179.25
2022-09-20T12:14:01.357Z,97175.00
2022-09-20T12:15:06.909Z,97169.06
2022-09-20T12:16:14.755Z,97162.53
2022-09-20T12:17:44.335Z,97170.69
2022-09-20T12:18:54.397Z,97160.47
2022-09-20T12:19:55.760Z,97167.53
2022-09-20T12:21:04.175Z,97139.00
2022-09-20T12:22:26.880Z,97159.97
2022-09-20T12:23:40.433Z,97164.94
2022-09-20T12:24:45.462Z,97165.53
2022-09-20T12:32:52.185Z,97152.50
2022-09-20T12:34:10.457Z,97149.75
2022-09-20T12:35:44.350Z,97145.47
2022-09-20T12:37:10.222Z,97144.84
2022-09-20T12:38:28.433Z,97154.25
2022-09-20T12:39:35.864Z,97147.69
2022-09-20T12:40:58.193Z,97138.78
2022-09-20T12:42:22.792Z,97154.50
2022-09-20T12:43:24.539Z,97143.13
2022-09-20T12:44:54.063Z,97160.66
2022-09-20T12:46:01.272Z,97156.94
2022-09-20T12:47:11.376Z,97159.28
2022-09-20T12:48:19.545Z,97154.41
2022-09-20T12:49:48.480Z,97153.91
2022-09-20T12:51:48.249Z,97148.97
2022-09-20T12:52:57.936Z,97135.81
2022-09-20T12:54:06.479Z,97158.72
2022-09-20T12:55:11.491Z,97149.69
2022-09-20T12:56:21.698Z,97154.19
2022-09-20T12:57:32.519Z,97149.44
2022-09-20T12:58:54.624Z,97147.97
2022-09-20T13:04:59.058Z,97152.97
2022-09-20T13:06:06.167Z,97147.38
2022-09-20T13:07:34.915Z,97149.19
2022-09-20T13:08:51.359Z,97149.66
2022-09-20T13:09:54.016Z,97151.06
2022-09-20T13:11:07.134Z,97149.47
2022-09-20T13:12:10.502Z,97142.72
2022-09-20T13:13:28.719Z,97148.31
2022-09-20T13:14:32.492Z,97148.50
2022-09-20T13:15:35.602Z,97141.22
2022-09-20T13:22:47.665Z,97151.13
2022-09-20T13:23:52.343Z,97162.84
2022-09-20T13:24:58.089Z,97150.88
2022-09-20T13:33:56.891Z,97169.50
2022-09-20T13:35:10.209Z,97169.03
2022-09-20T13:45:54.082Z,97174.34
2022-09-20T13:46:59.280Z,97163.88
2022-09-20T13:56:58.407Z,97177.78
2022-09-20T13:58:03.545Z,97171.19
2022-09-20T14:16:55.145Z,97155.53
2022-09-20T14:17:56.899Z,97172.06
2022-09-20T14:24:37.399Z,97162.09
2022-09-20T14:25:38.921Z,97164.25
2022-09-20T14:26:42.537Z,97164.63
2022-09-20T14:27:44.234Z,97157.22
2022-09-20T14:28:46.683Z,97167.50
2022-09-20T14:29:52.591Z,97164.03
2022-09-20T14:31:15.794Z,97160.22
2022-09-20T14:32:17.167Z,97163.97
2022-09-20T14:33:21.016Z,97154.13
2022-09-20T14:34:22.595Z,97148.19
2022-09-20T14:35:24.008Z,97166.84
2022-09-20T14:48:10.864Z,97162.28
2022-09-20T14:49:25.835Z,97157.66
2022-09-20T14:50:39.225Z,97154.78
2022-09-20T14:51:40.577Z,97150.66
2022-09-20T14:52:44.010Z,97158.06
2022-09-20T14:53:48.066Z,97162.13
2022-09-20T14:55:16.498Z,97151.09
2022-09-20T14:56:32.672Z,97152.47
2022-09-20T14:57:34.202Z,97159.53
2022-09-20T14:59:05.548Z,97156.28
2022-09-20T15:07:01.604Z,97154.91
2022-09-20T15:08:03.250Z,97146.03
2022-09-20T15:09:04.649Z,97158.28
2022-09-20T15:10:15.775Z,97153.03
2022-09-20T15:11:18.917Z,97162.06
2022-09-20T15:18:03.530Z,97155.78
2022-09-20T15:19:06.115Z,97155.81
2022-09-20T15:24:44.114Z,97146.66
2022-09-20T15:25:49.346Z,97153.06
2022-09-20T15:26:50.698Z,97162.69
2022-09-20T15:27:52.026Z,97150.72
2022-09-20T15:28:53.397Z,97149.75
2022-09-20T15:29:55.854Z,97148.50
2022-09-20T15:30:57.382Z,97155.53
2022-09-20T15:31:58.885Z,97144.69
2022-09-20T15:33:03.001Z,97155.75
2022-09-20T15:34:07.130Z,97152.97
2022-09-20T15:35:09.599Z,97156.06
2022-09-20T15:36:10.930Z,97155.53
2022-09-20T15:37:12.395Z,97156.53
2022-09-20T15:38:16.995Z,97151.41
2022-09-20T15:39:18.483Z,97137.66
2022-09-20T15:40:19.925Z,97151.75
2022-09-20T15:41:21.460Z,97155.72
2022-09-20T15:48:03.051Z,97146.66
2022-09-20T15:49:06.559Z,97138.25
2022-09-20T15:50:09.085Z,97132.81
2022-09-20T15:51:12.148Z,97139.06
2022-09-20T15:52:13.746Z,97135.53
2022-09-20T15:53:15.110Z,97148.22
2022-09-20T15:54:17.110Z,97146.19
2022-09-20T15:55:19.397Z,97144.44
2022-09-20T15:56:22.018Z,97133.81
2022-09-20T15:57:24.219Z,97109.19
2022-09-20T15:58:26.062Z,97141.63
2022-09-20T16:06:03.945Z,97144.25
2022-09-20T16:07:06.992Z,97146.22
2022-09-20T16:08:08.385Z,97149.22
2022-09-20T16:09:09.940Z,97149.09
2022-09-20T16:10:11.289Z,97132.53
2022-09-20T16:11:22.403Z,97140.81
2022-09-20T16:12:25.579Z,97148.91
2022-09-20T16:21:21.357Z,97155.75
2022-09-20T16:22:23.360Z,97156.59
2022-09-20T16:23:26.090Z,97154.59
2022-09-20T16:24:30.273Z,97154.59
2022-09-20T16:25:32.174Z,97160.81
2022-09-20T16:34:28.402Z,97164.09
2022-09-20T16:35:29.771Z,97166.09
2022-09-20T16:36:32.808Z,97161.56
2022-09-20T16:37:35.325Z,97161.34
2022-09-20T16:38:39.667Z,97132.75
2022-09-20T16:39:41.974Z,97174.41
2022-09-20T16:40:44.004Z,97173.16
2022-09-20T16:41:48.131Z,97163.16
